Time;durP1;ratioP1;P1;durP2;ratioP2;P2;SDS_P1;SDS_P2;PMS_P1;PMS_P2;Temp;Humidity;BMP_temperature;BMP_pressure;BME280_temperature;BME280_humidity;BME280_pressure;Samples;Min_cycle;Max_cycle;Signal;HPM_P1;HPM_P2
2023/05/03 00:02:16;;;;;;;5.93;4.60;;;;;;;10.17;98.20;153972.03;4986469;28;20452;-84
2023/05/03 00:04:45;;;;;;;6.13;4.73;;;;;;;10.20;98.35;153978.50;5002335;28;20510;-84
2023/05/03 00:07:11;;;;;;;6.33;4.83;;;;;;;10.15;99.19;153966.88;4991177;28;20476;-84
2023/05/03 00:09:38;;;;;;;4.80;4.30;;;;;;;10.16;98.22;153969.47;4989065;28;20568;-84
2023/05/03 00:12:05;;;;;;;6.97;5.10;;;;;;;10.20;97.66;153978.50;4987457;28;20457;-84
2023/05/03 00:14:32;;;;;;;5.63;5.03;;;;;;;10.16;97.69;153969.47;5005381;28;20480;-84
2023/05/03 00:16:58;;;;;;;5.87;4.60;;;;;;;10.17;97.22;153970.72;4989732;28;20452;-84
2023/05/03 00:19:28;;;;;;;5.77;4.83;;;;;;;10.15;97.93;153966.88;4983806;28;20481;-84
2023/05/03 00:21:55;;;;;;;4.90;4.10;;;;;;;10.18;97.95;153974.63;4988798;28;20477;-84
2023/05/03 00:24:22;;;;;;;5.90;4.43;;;;;;;10.18;97.40;153973.34;4993759;28;20454;-84
2023/05/03 00:26:48;;;;;;;5.70;4.43;;;;;;;10.13;97.84;153960.41;4983760;28;20541;-84
2023/05/03 00:29:15;;;;;;;4.80;3.97;;;;;;;10.08;98.30;153948.72;4984970;28;20463;-84
2023/05/03 00:31:43;;;;;;;5.07;3.87;;;;;;;10.08;97.84;153947.41;5000483;28;20545;-83
2023/05/03 00:34:09;;;;;;;6.83;4.77;;;;;;;10.03;98.51;153934.47;5005568;28;20452;-84
2023/05/03 00:36:37;;;;;;;4.83;4.20;;;;;;;9.98;98.32;153921.53;5004949;28;21025;-83
2023/05/03 00:39:04;;;;;;;6.93;4.40;;;;;;;9.93;98.84;153908.59;4984706;28;21023;-83
2023/05/03 00:41:30;;;;;;;5.97;4.50;;;;;;;9.88;99.66;153895.59;5005256;28;20448;-83
2023/05/03 00:43:57;;;;;;;5.50;4.67;;;;;;;9.83;100.00;153883.97;4990547;28;20481;-84
2023/05/03 00:46:23;;;;;;;6.20;4.30;;;;;;;9.87;99.93;153893.06;4988403;28;20464;-83
2023/05/03 00:48:50;;;;;;;7.83;4.50;;;;;;;9.84;99.67;153886.59;4986243;28;20480;-83
2023/05/03 00:51:17;;;;;;;6.90;5.53;;;;;;;9.84;100.00;153885.28;4988406;28;20863;-84
2023/05/03 00:53:45;;;;;;;5.93;4.70;;;;;;;9.85;99.70;153889.16;5004401;28;21054;-84
2023/05/03 00:56:18;;;;;;;4.73;4.23;;;;;;;9.85;100.00;153887.88;4987074;28;20546;-84
2023/05/03 00:58:44;;;;;;;5.83;4.93;;;;;;;9.82;100.00;153882.69;4993640;28;20869;-84
2023/05/03 01:01:11;;;;;;;6.10;4.67;;;;;;;9.78;100.00;153871.03;4979009;28;20828;-84
2023/05/03 01:03:40;;;;;;;6.53;4.60;;;;;;;9.73;100.00;153859.41;4964815;28;20460;-84
2023/05/03 01:06:11;;;;;;;5.77;5.07;;;;;;;9.67;100.00;153843.88;5002345;28;20548;-83
2023/05/03 01:08:42;;;;;;;6.43;4.47;;;;;;;9.62;100.00;153829.63;5002776;28;20534;-84
2023/05/03 01:11:14;;;;;;;6.80;5.10;;;;;;;9.58;100.00;153820.56;4990059;28;20882;-84
2023/05/03 01:13:44;;;;;;;6.30;5.03;;;;;;;9.51;100.00;153802.47;4987698;28;22256;-84
2023/05/03 01:16:16;;;;;;;7.33;5.50;;;;;;;9.55;100.00;153811.53;4986327;28;20814;-84
2023/05/03 01:18:45;;;;;;;5.03;4.50;;;;;;;9.47;100.00;153792.13;5000873;28;20487;-84
2023/05/03 01:21:15;;;;;;;7.87;5.97;;;;;;;9.47;100.00;153790.84;5000388;28;20488;-84
2023/05/03 01:23:44;;;;;;;6.57;5.00;;;;;;;9.48;100.00;153793.41;4987591;28;20518;-84
2023/05/03 01:26:22;;;;;;;6.90;5.53;;;;;;;9.40;100.00;153774.00;4968393;28;20460;-84
2023/05/03 01:28:49;;;;;;;7.43;5.57;;;;;;;9.38;100.00;153767.53;4988308;28;21014;-84
2023/05/03 01:31:19;;;;;;;7.00;5.87;;;;;;;9.34;100.00;153758.50;4986105;28;20466;-84
2023/05/03 01:33:49;;;;;;;6.47;5.20;;;;;;;9.29;100.00;153744.28;4983987;28;20555;-84
2023/05/03 01:36:19;;;;;;;6.90;5.20;;;;;;;9.28;100.00;153741.69;4985287;28;21005;-83
2023/05/03 01:38:46;;;;;;;7.73;5.50;;;;;;;9.23;100.00;153728.75;4989000;28;20455;-84
2023/05/03 01:41:14;;;;;;;6.17;4.57;;;;;;;9.27;100.00;153740.38;4985828;28;20455;-83
2023/05/03 01:43:42;;;;;;;6.13;4.83;;;;;;;9.26;100.00;153737.81;4986906;28;20463;-83
2023/05/03 01:46:09;;;;;;;5.80;4.80;;;;;;;9.18;100.00;153717.13;4971571;28;20516;-84
2023/05/03 01:48:36;;;;;;;6.57;5.77;;;;;;;9.17;100.00;153714.50;4989171;28;20484;-84
2023/05/03 01:51:02;;;;;;;7.60;5.13;;;;;;;9.20;100.00;153722.28;4965933;28;20558;-84
2023/05/03 01:53:29;;;;;;;7.20;5.07;;;;;;;9.16;100.00;153711.91;4989415;28;20866;-84
2023/05/03 01:55:55;;;;;;;6.87;6.17;;;;;;;9.07;100.00;153688.66;4970551;28;20467;-84
2023/05/03 01:58:22;;;;;;;9.67;5.87;;;;;;;9.06;100.00;153686.06;4979564;28;20991;-84
2023/05/03 02:00:50;;;;;;;6.80;5.73;;;;;;;9.00;100.00;153671.81;4983322;28;20454;-84
2023/05/03 02:03:16;;;;;;;6.93;5.53;;;;;;;9.00;100.00;153671.81;4991783;28;20461;-83
2023/05/03 02:05:45;;;;;;;6.23;5.10;;;;;;;9.01;100.00;153673.13;4971576;28;20520;-84
2023/05/03 02:08:12;;;;;;;6.90;5.53;;;;;;;8.99;100.00;153669.25;4989082;28;20479;-84
2023/05/03 02:10:38;;;;;;;8.17;6.20;;;;;;;8.97;100.00;153664.09;5002735;28;20551;-84
2023/05/03 02:13:05;;;;;;;6.90;5.70;;;;;;;8.91;100.00;153647.28;5007084;28;20471;-84
2023/05/03 02:15:32;;;;;;;6.27;5.50;;;;;;;8.89;100.00;153642.13;5001942;28;20928;-84
2023/05/03 02:18:01;;;;;;;5.73;5.10;;;;;;;8.79;100.00;153617.50;5003062;28;20937;-84
2023/05/03 02:20:27;;;;;;;7.07;5.50;;;;;;;8.76;100.00;153608.50;4990080;28;21233;-84
2023/05/03 02:22:54;;;;;;;7.70;5.93;;;;;;;8.71;100.00;153596.81;5009702;28;20459;-84
2023/05/03 02:25:21;;;;;;;7.97;6.70;;;;;;;8.68;100.00;153587.81;4976678;28;20462;-83
2023/05/03 02:27:48;;;;;;;7.43;6.13;;;;;;;8.67;100.00;153585.22;4991748;28;20477;-84
2023/05/03 02:30:15;;;;;;;8.00;6.10;;;;;;;8.64;100.00;153577.44;5001969;28;20490;-84
2023/05/03 02:32:43;;;;;;;6.60;5.77;;;;;;;8.63;100.00;153574.88;4970807;28;20807;-84
2023/05/03 02:35:11;;;;;;;8.30;6.27;;;;;;;8.67;100.00;153585.22;4994827;28;21015;-84
2023/05/03 02:37:38;;;;;;;8.77;6.13;;;;;;;8.69;100.00;153590.38;4988720;28;20458;-84
2023/05/03 02:40:09;;;;;;;10.90;6.43;;;;;;;8.77;100.00;153611.06;4987211;28;20471;-84
2023/05/03 02:42:36;;;;;;;7.50;5.90;;;;;;;8.72;100.00;153599.44;4988758;28;20541;-84
2023/05/03 02:45:04;;;;;;;7.60;5.57;;;;;;;8.72;100.00;153598.13;4990322;28;20462;-83
2023/05/03 02:47:31;;;;;;;7.00;5.50;;;;;;;8.68;100.00;153587.81;4988225;28;20443;-84
2023/05/03 02:49:57;;;;;;;8.37;6.10;;;;;;;8.65;100.00;153580.03;5006689;28;20445;-84
2023/05/03 02:52:26;;;;;;;8.90;6.60;;;;;;;8.62;100.00;153572.28;4973211;28;20462;-84
2023/05/03 02:54:52;;;;;;;9.37;6.30;;;;;;;8.57;100.00;153561.97;5005066;28;20874;-84
2023/05/03 02:57:19;;;;;;;9.77;6.30;;;;;;;8.55;100.00;153556.75;4990399;28;20920;-84
2023/05/03 02:59:46;;;;;;;8.97;6.20;;;;;;;8.50;100.00;153543.84;4974189;28;20439;-84
2023/05/03 03:02:12;;;;;;;8.70;6.37;;;;;;;8.48;100.00;153538.69;5005920;28;20540;-84
2023/05/03 03:04:39;;;;;;;8.10;6.00;;;;;;;8.46;100.00;153532.22;4969579;28;20489;-83
2023/05/03 03:07:06;;;;;;;8.37;7.20;;;;;;;8.44;100.00;153527.06;4989845;28;20464;-84
2023/05/03 03:09:34;;;;;;;8.10;6.77;;;;;;;8.43;100.00;153525.75;4990591;28;20492;-84
2023/05/03 03:12:02;;;;;;;7.70;6.20;;;;;;;8.42;100.00;153521.84;4982136;28;20456;-84
2023/05/03 03:14:29;;;;;;;9.30;6.30;;;;;;;8.38;100.00;153512.84;5021115;28;20867;-84
2023/05/03 03:16:56;;;;;;;8.73;6.83;;;;;;;8.33;100.00;153499.91;4995586;28;20462;-84
2023/05/03 03:19:23;;;;;;;8.20;6.47;;;;;;;8.32;100.00;153497.31;4973319;28;20801;-84
2023/05/03 03:21:49;;;;;;;10.47;7.70;;;;;;;8.33;100.00;153498.63;4970022;28;20451;-84
2023/05/03 03:24:16;;;;;;;9.80;6.27;;;;;;;8.37;100.00;153510.22;4989727;28;20464;-84
2023/05/03 03:26:44;;;;;;;8.57;6.90;;;;;;;8.33;100.00;153499.91;4972958;28;20479;-84
2023/05/03 03:29:10;;;;;;;9.87;7.37;;;;;;;8.30;100.00;153492.16;4985064;28;20492;-84
2023/05/03 03:31:40;;;;;;;8.07;6.47;;;;;;;8.28;100.00;153487.00;4970304;28;20486;-84
2023/05/03 03:34:07;;;;;;;10.27;6.10;;;;;;;8.26;100.00;153481.75;4973187;28;20989;-84
2023/05/03 03:36:35;;;;;;;10.73;7.90;;;;;;;8.25;100.00;153477.88;4991737;28;20542;-84
2023/05/03 03:39:02;;;;;;;9.27;7.37;;;;;;;8.23;100.00;153472.72;4991674;28;20454;-84
2023/05/03 03:41:29;;;;;;;13.13;7.00;;;;;;;8.24;100.00;153475.28;4977119;28;20521;-84
2023/05/03 03:43:58;;;;;;;10.07;7.73;;;;;;;8.22;100.00;153471.44;4989697;28;20464;-84
2023/05/03 03:46:24;;;;;;;6.83;5.83;;;;;;;8.19;100.00;153463.66;4990350;28;20450;-84
2023/05/03 03:48:54;;;;;;;11.70;7.30;;;;;;;8.15;100.00;153452.03;4971071;28;20485;-84
2023/05/03 03:51:22;;;;;;;10.77;7.00;;;;;;;8.08;100.00;153435.22;4990370;28;20545;-84
2023/05/03 03:53:48;;;;;;;8.20;7.00;;;;;;;8.10;100.00;153440.38;4974876;28;20545;-84
2023/05/03 03:56:16;;;;;;;9.30;7.00;;;;;;;8.02;100.00;153419.75;4972162;28;20528;-84
2023/05/03 03:58:42;;;;;;;8.77;6.33;;;;;;;8.00;100.00;153414.53;4966757;28;20486;-84
2023/05/03 04:01:12;;;;;;;11.10;7.47;;;;;;;7.97;100.00;153406.78;4972977;28;20458;-84
2023/05/03 04:03:39;;;;;;;9.43;7.00;;;;;;;7.92;100.00;153393.88;4986522;28;20501;-84
2023/05/03 04:06:06;;;;;;;10.60;8.07;;;;;;;7.89;100.00;153387.41;5018833;28;20454;-84
2023/05/03 04:08:33;;;;;;;8.93;6.83;;;;;;;7.85;100.00;153375.81;4988051;28;20474;-84
2023/05/03 04:11:01;;;;;;;8.53;7.30;;;;;;;7.87;100.00;153380.97;5003704;28;20465;-84
2023/05/03 04:13:30;;;;;;;11.17;8.30;;;;;;;7.84;100.00;153374.50;4973397;28;20454;-84
2023/05/03 04:15:56;;;;;;;11.33;7.50;;;;;;;7.86;100.00;153378.41;4990275;28;20463;-84
2023/05/03 04:18:26;;;;;;;10.00;7.63;;;;;;;7.85;100.00;153375.81;4987335;28;20507;-84
2023/05/03 04:20:54;;;;;;;10.57;8.20;;;;;;;7.91;100.00;153392.63;4973966;28;21037;-84
2023/05/03 04:23:21;;;;;;;11.10;8.07;;;;;;;7.97;100.00;153408.09;4992146;28;20450;-84
2023/05/03 04:25:48;;;;;;;10.70;7.63;;;;;;;7.98;100.00;153410.69;4967702;28;20462;-84
2023/05/03 04:28:16;;;;;;;9.20;7.83;;;;;;;7.95;100.00;153401.63;4987735;28;20492;-84
2023/05/03 04:30:47;;;;;;;11.77;8.30;;;;;;;7.95;100.00;153402.94;4984348;28;20477;-84
2023/05/03 04:33:16;;;;;;;10.77;8.23;;;;;;;7.97;100.00;153408.09;5005061;28;20509;-84
2023/05/03 04:35:45;;;;;;;12.40;7.23;;;;;;;7.98;100.00;153409.41;4989034;28;20461;-84
2023/05/03 04:38:14;;;;;;;10.97;7.87;;;;;;;7.98;100.00;153409.41;4991156;28;20841;-84
2023/05/03 04:40:41;;;;;;;13.37;7.77;;;;;;;7.97;100.00;153406.78;4978922;28;20504;-84
2023/05/03 04:43:10;;;;;;;9.80;7.60;;;;;;;8.02;100.00;153419.75;4987975;28;20456;-84
2023/05/03 04:45:41;;;;;;;14.33;9.33;;;;;;;8.08;100.00;153433.94;4988400;28;20465;-84
2023/05/03 04:48:11;;;;;;;10.20;8.17;;;;;;;8.07;100.00;153431.38;4975333;28;20470;-84
2023/05/03 04:50:37;;;;;;;12.33;9.10;;;;;;;8.10;100.00;153440.38;4968204;28;20463;-84
2023/05/03 04:53:08;;;;;;;11.93;8.17;;;;;;;8.09;100.00;153436.53;4979159;28;20470;-84
2023/05/03 04:55:39;;;;;;;11.07;7.80;;;;;;;8.20;100.00;153464.97;5004546;28;20464;-85
2023/05/03 04:58:06;;;;;;;11.50;9.17;;;;;;;8.21;100.00;153467.50;4986385;28;21890;-84
2023/05/03 05:00:33;;;;;;;11.63;8.30;;;;;;;8.16;100.00;153455.91;4974364;28;20462;-84
2023/05/03 05:03:06;;;;;;;10.70;7.63;;;;;;;8.20;100.00;153466.28;4965699;28;20456;-84
2023/05/03 05:05:33;;;;;;;9.67;7.93;;;;;;;8.28;100.00;153487.00;4981168;28;20459;-84
2023/05/03 05:08:00;;;;;;;10.90;9.00;;;;;;;8.36;100.00;153507.69;4979389;28;20514;-84
2023/05/03 05:10:38;;;;;;;11.70;8.27;;;;;;;8.45;100.00;153530.91;4983509;28;20474;-84
2023/05/03 05:13:05;;;;;;;11.93;7.87;;;;;;;8.45;100.00;153530.91;4972631;28;20453;-84
2023/05/03 05:15:33;;;;;;;12.23;8.40;;;;;;;8.56;100.00;153559.38;4967620;28;20482;-84
2023/05/03 05:18:00;;;;;;;13.40;7.60;;;;;;;8.73;100.00;153600.72;4984762;28;20564;-84
2023/05/03 05:20:27;;;;;;;11.13;7.90;;;;;;;8.91;100.00;153647.28;4995891;28;20451;-84
2023/05/03 05:22:53;;;;;;;10.30;7.97;;;;;;;9.06;100.00;153687.34;5003104;28;20450;-84
2023/05/03 05:25:20;;;;;;;11.27;6.77;;;;;;;9.19;100.00;153719.69;5019126;28;20512;-84
2023/05/03 05:27:48;;;;;;;9.70;7.73;;;;;;;9.28;100.00;153742.97;4985713;28;21128;-84
2023/05/03 05:30:16;;;;;;;11.00;7.77;;;;;;;9.44;100.00;153784.38;4996433;28;20501;-84
2023/05/03 05:32:43;;;;;;;10.83;8.17;;;;;;;9.56;100.00;153814.09;5012340;28;20454;-84
2023/05/03 05:35:11;;;;;;;10.73;7.97;;;;;;;9.55;100.00;153812.84;4998621;28;20509;-84
2023/05/03 05:37:38;;;;;;;12.10;7.93;;;;;;;9.61;100.00;153827.06;4999604;28;20447;-83
2023/05/03 05:40:07;;;;;;;10.90;8.07;;;;;;;9.85;100.00;153887.88;4996138;28;21042;-83
2023/05/03 05:42:40;;;;;;;10.87;7.27;;;;;;;10.01;100.00;153930.56;5009548;28;20487;-83
2023/05/03 05:45:09;;;;;;;11.10;8.10;;;;;;;10.14;100.00;153963.00;5004591;28;20468;-83
2023/05/03 05:47:37;;;;;;;9.97;7.00;;;;;;;10.18;100.00;153974.63;5000651;28;20860;-83
2023/05/03 05:50:05;;;;;;;10.63;7.63;;;;;;;10.24;100.00;153988.88;5012329;28;20939;-83
2023/05/03 05:52:32;;;;;;;11.07;6.87;;;;;;;10.35;100.00;154017.38;5002246;28;20547;-83
2023/05/03 05:54:59;;;;;;;10.63;7.83;;;;;;;10.54;100.00;154065.28;5001049;28;20464;-83
2023/05/03 05:57:26;;;;;;;10.83;8.10;;;;;;;10.76;97.90;154122.22;5015444;28;20493;-83
2023/05/03 05:59:54;;;;;;;12.93;8.27;;;;;;;10.83;98.22;154141.63;5001198;28;20457;-83
2023/05/03 06:02:23;;;;;;;10.93;8.67;;;;;;;10.96;95.84;154175.31;5003949;28;20571;-83
2023/05/03 06:04:51;;;;;;;10.37;8.63;;;;;;;10.87;95.86;154150.72;5013359;28;20457;-83
2023/05/03 06:07:17;;;;;;;10.73;7.77;;;;;;;10.99;96.52;154181.78;5010321;28;20449;-83
2023/05/03 06:09:44;;;;;;;10.63;8.10;;;;;;;11.19;96.87;154232.31;5003021;28;20497;-83
2023/05/03 06:12:11;;;;;;;13.20;8.47;;;;;;;11.25;92.97;154247.88;4990659;28;20472;-83
2023/05/03 06:14:41;;;;;;;11.50;7.80;;;;;;;11.08;94.21;154203.81;4989276;28;20541;-83
2023/05/03 06:17:08;;;;;;;10.37;8.27;;;;;;;11.08;94.26;154203.81;5014977;28;20504;-83
2023/05/03 06:19:36;;;;;;;10.37;7.90;;;;;;;11.04;94.87;154193.47;5000091;28;20457;-83
2023/05/03 06:22:03;;;;;;;9.80;7.97;;;;;;;10.88;95.29;154154.56;5003791;28;20900;-83
2023/05/03 06:24:31;;;;;;;11.57;8.90;;;;;;;10.93;96.51;154167.53;5007209;28;20832;-83
2023/05/03 06:26:59;;;;;;;9.40;8.20;;;;;;;11.07;96.00;154202.50;5023736;28;20464;-83
2023/05/03 06:29:27;;;;;;;13.03;8.50;;;;;;;11.43;95.97;154294.50;4989374;28;20503;-83
2023/05/03 06:31:53;;;;;;;11.47;8.40;;;;;;;11.66;92.84;154354.09;4996062;28;20460;-83
2023/05/03 06:34:20;;;;;;;12.57;7.80;;;;;;;11.73;92.53;154372.28;5006811;28;20466;-83
2023/05/03 06:36:49;;;;;;;10.67;8.30;;;;;;;11.89;91.16;154413.75;5009190;28;20443;-82
2023/05/03 06:39:18;;;;;;;13.30;8.53;;;;;;;12.09;91.28;154465.63;5002373;28;20462;-82
2023/05/03 06:41:45;;;;;;;10.90;8.27;;;;;;;12.39;89.37;154540.84;5005959;28;20459;-82
2023/05/03 06:44:12;;;;;;;9.93;8.27;;;;;;;12.60;87.68;154596.56;4994482;28;20453;-82
2023/05/03 06:46:39;;;;;;;10.80;8.07;;;;;;;12.74;87.05;154631.56;5002597;28;20443;-82
2023/05/03 06:49:05;;;;;;;11.57;8.97;;;;;;;12.81;86.51;154649.75;5010675;28;20525;-83
2023/05/03 06:51:32;;;;;;;12.07;9.03;;;;;;;12.89;86.51;154670.53;5014419;28;20461;-83
2023/05/03 06:54:05;;;;;;;12.50;8.97;;;;;;;13.14;85.48;154735.41;4998986;28;20477;-83
2023/05/03 06:56:33;;;;;;;12.77;8.80;;;;;;;13.28;85.26;154771.75;5003113;28;20448;-83
2023/05/03 06:59:00;;;;;;;11.93;8.37;;;;;;;13.33;83.57;154784.72;5024330;28;20462;-84
2023/05/03 07:01:26;;;;;;;11.23;8.97;;;;;;;13.49;83.28;154823.66;4997290;28;20448;-84
2023/05/03 07:03:53;;;;;;;9.10;8.00;;;;;;;13.62;83.75;154857.38;5004712;28;20458;-84
2023/05/03 07:06:21;;;;;;;10.60;8.67;;;;;;;13.95;81.09;154943.09;5000074;28;20456;-78
2023/05/03 07:08:48;;;;;;;10.80;8.97;;;;;;;13.95;81.83;154944.34;5010969;28;20467;-78
2023/05/03 07:11:16;;;;;;;10.83;8.27;;;;;;;14.00;81.95;154957.31;5005424;28;20568;-78
2023/05/03 07:13:45;;;;;;;11.53;8.03;;;;;;;14.35;81.48;155046.97;5010883;28;20502;-78
2023/05/03 07:16:12;;;;;;;11.37;8.97;;;;;;;14.27;79.45;155026.13;4996125;28;20454;-78
2023/05/03 07:18:38;;;;;;;10.23;8.90;;;;;;;14.21;78.72;155010.59;5004454;28;20458;-78
2023/05/03 07:21:05;;;;;;;12.37;8.60;;;;;;;14.10;79.82;154982.03;4999576;28;20462;-78
2023/05/03 07:23:32;;;;;;;10.53;8.50;;;;;;;14.06;79.67;154970.34;4998055;28;20453;-78
2023/05/03 07:25:58;;;;;;;10.43;8.53;;;;;;;13.96;79.90;154945.66;5000566;28;20516;-78
2023/05/03 07:28:26;;;;;;;9.63;7.70;;;;;;;13.86;79.88;154919.69;5011758;28;20547;-78
2023/05/03 07:30:53;;;;;;;10.47;8.50;;;;;;;13.67;81.34;154870.34;5018857;28;20530;-78
2023/05/03 07:33:19;;;;;;;12.57;9.47;;;;;;;13.76;81.97;154895.06;5018716;28;20468;-78
2023/05/03 07:35:46;;;;;;;10.33;8.20;;;;;;;13.95;80.44;154943.09;5006341;28;20483;-78
2023/05/03 07:38:12;;;;;;;11.57;8.13;;;;;;;14.08;80.64;154976.84;5009043;28;20455;-78
2023/05/03 07:40:40;;;;;;;10.17;8.87;;;;;;;14.13;81.61;154989.81;5017967;28;20466;-78
2023/05/03 07:43:08;;;;;;;10.50;8.30;;;;;;;14.14;80.54;154992.38;5006107;28;20441;-78
2023/05/03 07:45:36;;;;;;;10.63;8.73;;;;;;;14.23;80.80;155015.78;4996006;28;20472;-78
2023/05/03 07:48:04;;;;;;;13.53;8.53;;;;;;;14.32;79.15;155039.16;5004596;28;20952;-78
2023/05/03 07:50:30;;;;;;;10.87;8.00;;;;;;;14.29;80.05;155031.38;5022383;28;20497;-78
2023/05/03 07:52:57;;;;;;;9.83;7.73;;;;;;;14.61;79.11;155113.25;4994518;28;20438;-78
2023/05/03 07:55:24;;;;;;;9.40;8.50;;;;;;;14.62;79.33;155117.09;4989449;28;20465;-78
2023/05/03 07:57:52;;;;;;;9.80;8.17;;;;;;;14.88;80.35;155182.09;5008013;28;20493;-78
2023/05/03 08:00:19;;;;;;;8.20;7.43;;;;;;;15.14;77.23;155250.91;5008603;28;20548;-78
2023/05/03 08:02:46;;;;;;;10.50;8.50;;;;;;;15.18;75.43;155261.31;5007173;28;20454;-78
2023/05/03 08:05:13;;;;;;;9.20;8.07;;;;;;;14.90;77.63;155187.28;5000873;28;20467;-78
2023/05/03 08:07:40;;;;;;;9.67;8.50;;;;;;;14.74;76.79;155147.00;4996586;28;20896;-78
2023/05/03 08:10:08;;;;;;;12.33;9.40;;;;;;;14.76;78.04;155150.88;5002162;28;20998;-78
2023/05/03 08:12:34;;;;;;;12.00;9.07;;;;;;;14.83;76.78;155169.06;5008656;28;20462;-78
2023/05/03 08:15:03;;;;;;;12.10;9.40;;;;;;;15.04;77.74;155223.63;5004229;28;20458;-78
2023/05/03 08:17:30;;;;;;;10.20;8.20;;;;;;;15.42;76.25;155322.41;4997796;28;20455;-78
2023/05/03 08:19:58;;;;;;;9.30;8.30;;;;;;;15.52;73.80;155347.13;5002844;28;20547;-78
2023/05/03 08:22:25;;;;;;;11.07;8.47;;;;;;;15.22;75.48;155270.44;5015869;28;21132;-78
2023/05/03 08:24:52;;;;;;;11.67;9.03;;;;;;;14.99;76.42;155210.63;5005501;28;20471;-78
2023/05/03 08:27:19;;;;;;;10.00;8.67;;;;;;;14.96;76.71;155202.81;4995895;28;20457;-78
2023/05/03 08:29:46;;;;;;;13.07;8.77;;;;;;;14.84;77.31;155172.97;5008274;28;20580;-78
2023/05/03 08:32:13;;;;;;;15.73;8.43;;;;;;;14.91;78.12;155189.84;4992294;28;20506;-78
2023/05/03 08:34:39;;;;;;;9.07;8.13;;;;;;;15.04;77.64;155223.63;4997539;28;21008;-78
2023/05/03 08:37:07;;;;;;;14.13;8.87;;;;;;;15.14;77.16;155249.66;4990028;28;20436;-78
2023/05/03 08:39:33;;;;;;;9.53;8.50;;;;;;;15.24;76.51;155275.63;5013066;28;20977;-78
2023/05/03 08:42:00;;;;;;;8.50;7.20;;;;;;;15.42;75.52;155322.41;4991860;28;20952;-78
2023/05/03 08:44:29;;;;;;;8.63;7.73;;;;;;;15.60;76.09;155369.22;5007173;28;20459;-77
2023/05/03 08:46:55;;;;;;;8.17;7.37;;;;;;;15.52;74.03;155348.44;4989769;28;20454;-77
2023/05/03 08:49:22;;;;;;;10.17;9.07;;;;;;;15.38;75.73;155310.72;4997273;28;20464;-77
2023/05/03 08:51:49;;;;;;;8.77;7.87;;;;;;;15.47;74.44;155335.44;5022288;28;20881;-77
2023/05/03 08:54:19;;;;;;;10.90;9.17;;;;;;;15.65;75.20;155380.91;5001445;28;20487;-78
2023/05/03 08:56:46;;;;;;;8.10;7.30;;;;;;;15.76;75.02;155410.84;5002662;28;20451;-77
2023/05/03 08:59:15;;;;;;;9.07;8.17;;;;;;;15.77;74.68;155413.47;5005755;28;20550;-77
2023/05/03 09:01:42;;;;;;;11.37;8.07;;;;;;;15.76;75.22;155409.53;5005984;28;20444;-77
2023/05/03 09:04:09;;;;;;;9.10;8.20;;;;;;;15.35;74.66;155302.91;4996617;28;20464;-77
2023/05/03 09:06:36;;;;;;;11.67;9.93;;;;;;;14.87;76.93;155180.78;5007290;28;20462;-77
2023/05/03 09:09:06;;;;;;;8.73;7.83;;;;;;;14.66;78.64;155124.91;5007637;28;20475;-77
2023/05/03 09:11:35;;;;;;;11.00;8.70;;;;;;;14.67;78.73;155128.78;5008767;28;20470;-77
2023/05/03 09:14:09;;;;;;;9.10;7.80;;;;;;;14.72;77.90;155140.50;5008711;28;20449;-77
2023/05/03 09:16:36;;;;;;;10.00;8.40;;;;;;;14.85;78.22;155174.28;5002998;28;20503;-77
2023/05/03 09:19:07;;;;;;;12.50;7.90;;;;;;;15.12;78.43;155244.41;4991283;28;20550;-77
2023/05/03 09:21:34;;;;;;;9.63;7.37;;;;;;;15.57;75.50;155361.44;5009463;28;20986;-78
2023/05/03 09:24:02;;;;;;;11.13;7.50;;;;;;;15.67;75.36;155386.16;4988176;28;20456;-77
2023/05/03 09:26:30;;;;;;;9.40;8.40;;;;;;;15.67;76.11;155387.41;4989843;28;20451;-77
2023/05/03 09:29:00;;;;;;;9.87;8.37;;;;;;;15.53;74.76;155351.06;4997170;28;20452;-77
2023/05/03 09:31:28;;;;;;;8.80;7.90;;;;;;;15.52;76.32;155347.13;4995582;28;20483;-77
2023/05/03 09:33:54;;;;;;;9.80;8.30;;;;;;;15.70;74.78;155395.22;5003001;28;20521;-77
2023/05/03 09:36:21;;;;;;;9.30;8.00;;;;;;;15.48;74.66;155338.06;4990085;28;20444;-77
2023/05/03 09:38:48;;;;;;;10.17;7.80;;;;;;;15.24;77.01;155275.63;4991373;28;20935;-77
2023/05/03 09:41:15;;;;;;;8.63;7.27;;;;;;;15.20;77.15;155265.19;4994857;28;20435;-77
2023/05/03 09:43:49;;;;;;;7.83;7.03;;;;;;;15.27;77.75;155284.69;5009625;28;20471;-77
2023/05/03 09:46:17;;;;;;;9.23;7.50;;;;;;;15.18;76.97;155260.00;4994864;28;20459;-77
2023/05/03 09:48:44;;;;;;;11.57;8.40;;;;;;;14.78;77.84;155157.38;4996728;28;20487;-77
2023/05/03 09:51:12;;;;;;;9.00;8.10;;;;;;;14.63;79.61;155119.72;5018563;28;20474;-77
2023/05/03 09:53:40;;;;;;;10.13;8.70;;;;;;;14.70;78.87;155135.28;4990494;28;21323;-77
2023/05/03 09:56:08;;;;;;;12.93;8.00;;;;;;;14.77;78.75;155154.81;4989133;28;20466;-77
2023/05/03 09:58:35;;;;;;;9.50;7.93;;;;;;;14.79;77.79;155158.69;5012232;28;20464;-77
2023/05/03 10:01:02;;;;;;;10.43;8.53;;;;;;;14.83;79.18;155169.06;4987675;28;20455;-77
2023/05/03 10:03:34;;;;;;;9.37;7.83;;;;;;;14.85;79.00;155174.28;4991331;28;20473;-77
2023/05/03 10:06:03;;;;;;;10.23;8.00;;;;;;;14.91;79.25;155189.84;5006429;28;20463;-77
2023/05/03 10:08:33;;;;;;;8.40;7.50;;;;;;;14.95;77.58;155200.25;5011314;28;20976;-77
2023/05/03 10:11:02;;;;;;;8.03;7.23;;;;;;;15.01;77.05;155215.88;4997545;28;20502;-77
2023/05/03 10:13:29;;;;;;;8.80;7.90;;;;;;;15.21;76.03;155267.81;5005762;28;20476;-77
2023/05/03 10:15:58;;;;;;;8.63;7.83;;;;;;;15.27;77.20;155283.44;5020153;28;20575;-77
2023/05/03 10:18:27;;;;;;;9.30;7.33;;;;;;;15.52;74.76;155347.13;4990485;28;20515;-77
2023/05/03 10:20:58;;;;;;;7.33;6.40;;;;;;;15.74;74.55;155405.66;4997536;28;20455;-77
2023/05/03 10:23:25;;;;;;;8.63;6.70;;;;;;;15.89;73.44;155442.00;4987673;28;20448;-77
2023/05/03 10:26:13;;;;;;;8.50;7.60;;;;;;;15.78;71.93;155416.03;4989427;28;20781;-78
2023/05/03 10:28:40;;;;;;;7.57;6.83;;;;;;;15.69;73.76;155392.66;5013025;28;20452;-77
2023/05/03 10:31:06;;;;;;;8.53;6.77;;;;;;;15.67;73.34;155387.41;4989240;28;20539;-77
2023/05/03 10:33:33;;;;;;;8.00;6.50;;;;;;;15.68;72.49;155390.03;4993958;28;20550;-77
2023/05/03 10:36:05;;;;;;;8.10;6.60;;;;;;;15.76;73.03;155409.53;4987669;28;20462;-77
2023/05/03 10:38:32;;;;;;;8.43;7.43;;;;;;;15.86;71.33;155434.25;4992007;28;20451;-77
2023/05/03 10:41:02;;;;;;;7.60;6.80;;;;;;;15.75;71.87;155408.22;4997481;28;20851;-77
2023/05/03 10:43:41;;;;;;;7.30;6.33;;;;;;;15.75;74.32;155406.97;4989902;28;20950;-77
2023/05/03 10:46:10;;;;;;;6.90;6.20;;;;;;;15.73;70.37;155401.72;4993771;28;20883;-78
2023/05/03 10:48:37;;;;;;;10.40;7.23;;;;;;;15.44;72.16;155327.59;4974832;28;20640;-78
2023/05/03 10:51:35;;;;;;;8.60;7.57;;;;;;;15.52;74.15;155348.44;4995210;28;20498;-78
2023/05/03 10:54:02;;;;;;;8.93;7.27;;;;;;;15.40;72.80;155317.22;5006970;28;20439;-78
2023/05/03 10:56:28;;;;;;;10.00;7.23;;;;;;;15.44;72.86;155326.28;5002263;28;20448;-78
2023/05/03 10:58:57;;;;;;;7.80;7.00;;;;;;;15.75;71.14;155408.22;5001052;28;20538;-76
2023/05/03 11:01:24;;;;;;;8.20;6.77;;;;;;;15.60;70.33;155369.22;5012375;28;20540;-76
2023/05/03 11:03:53;;;;;;;5.93;5.17;;;;;;;15.60;67.59;155369.22;5000998;28;20852;-77
2023/05/03 11:06:34;;;;;;;7.17;5.47;;;;;;;15.68;67.03;155388.72;4992165;28;20474;-77
2023/05/03 11:09:03;;;;;;;6.67;6.07;;;;;;;15.62;66.13;155374.41;5009844;28;21000;-76
2023/05/03 11:11:30;;;;;;;6.33;5.37;;;;;;;15.74;66.49;155405.66;4998867;28;20470;-77
2023/05/03 11:13:56;;;;;;;7.67;6.97;;;;;;;15.88;67.39;155440.75;4992094;28;20448;-77
2023/05/03 11:16:23;;;;;;;11.07;7.40;;;;;;;15.82;66.66;155426.44;4997884;28;20440;-76
2023/05/03 11:18:50;;;;;;;13.13;6.70;;;;;;;16.11;66.86;155500.56;4994299;28;20861;-77
2023/05/03 11:21:17;;;;;;;7.50;6.70;;;;;;;16.32;65.50;155553.84;4996749;28;20453;-77
2023/05/03 11:23:45;;;;;;;6.60;5.97;;;;;;;16.22;64.70;155529.16;4991694;28;20448;-76
2023/05/03 11:26:13;;;;;;;8.07;5.60;;;;;;;16.17;66.48;155516.16;4992288;28;20460;-77